sensor_id;sensor_type;location;lat;lon;timestamp;temperature;humidity
25877;DHT22;13692;47.480;19.216;2024-02-21T00:00:55;8.50;99.90
25877;DHT22;13692;47.480;19.216;2024-02-21T00:03:22;8.50;99.90
25877;DHT22;13692;47.480;19.216;2024-02-21T00:05:49;8.50;99.90
25877;DHT22;13692;47.480;19.216;2024-02-21T00:08:16;8.50;99.90
25877;DHT22;13692;47.480;19.216;2024-02-21T00:10:43;8.50;99.90
25877;DHT22;13692;47.480;19.216;2024-02-21T00:13:10;8.50;99.90
25877;DHT22;13692;47.480;19.216;2024-02-21T00:15:37;8.50;99.90
25877;DHT22;13692;47.480;19.216;2024-02-21T00:18:04;8.50;99.90
25877;DHT22;13692;47.480;19.216;2024-02-21T00:20:32;8.60;99.90
25877;DHT22;13692;47.480;19.216;2024-02-21T00:22:59;8.60;99.90
25877;DHT22;13692;47.480;19.216;2024-02-21T00:25:26;8.60;99.90
25877;DHT22;13692;47.480;19.216;2024-02-21T00:27:53;8.60;99.90
25877;DHT22;13692;47.480;19.216;2024-02-21T00:30:20;8.60;99.90
25877;DHT22;13692;47.480;19.216;2024-02-21T00:32:47;8.60;99.90
25877;DHT22;13692;47.480;19.216;2024-02-21T00:35:15;8.70;99.90
25877;DHT22;13692;47.480;19.216;2024-02-21T00:37:42;8.70;99.90
25877;DHT22;13692;47.480;19.216;2024-02-21T00:40:09;8.70;99.90
25877;DHT22;13692;47.480;19.216;2024-02-21T00:42:36;8.70;99.90
25877;DHT22;13692;47.480;19.216;2024-02-21T00:45:04;8.70;99.90
25877;DHT22;13692;47.480;19.216;2024-02-21T00:47:31;8.70;99.90
25877;DHT22;13692;47.480;19.216;2024-02-21T00:49:58;8.70;99.90
25877;DHT22;13692;47.480;19.216;2024-02-21T00:52:25;8.70;99.90
25877;DHT22;13692;47.480;19.216;2024-02-21T00:54:52;8.70;99.90
25877;DHT22;13692;47.480;19.216;2024-02-21T00:57:20;8.70;99.90
25877;DHT22;13692;47.480;19.216;2024-02-21T00:59:47;8.70;99.90
25877;DHT22;13692;47.480;19.216;2024-02-21T01:02:15;8.70;99.90
25877;DHT22;13692;47.480;19.216;2024-02-21T01:04:42;8.70;99.90
25877;DHT22;13692;47.480;19.216;2024-02-21T01:07:09;8.70;99.90
25877;DHT22;13692;47.480;19.216;2024-02-21T01:09:36;8.70;99.90
25877;DHT22;13692;47.480;19.216;2024-02-21T01:12:03;8.70;99.90
25877;DHT22;13692;47.480;19.216;2024-02-21T01:14:30;8.70;99.90
25877;DHT22;13692;47.480;19.216;2024-02-21T01:16:57;8.70;99.90
25877;DHT22;13692;47.480;19.216;2024-02-21T01:19:24;8.70;99.90
25877;DHT22;13692;47.480;19.216;2024-02-21T01:21:52;8.70;99.90
25877;DHT22;13692;47.480;19.216;2024-02-21T01:24:18;8.70;99.90
25877;DHT22;13692;47.480;19.216;2024-02-21T01:26:45;8.70;99.90
25877;DHT22;13692;47.480;19.216;2024-02-21T01:29:13;8.70;99.90
25877;DHT22;13692;47.480;19.216;2024-02-21T01:31:40;8.60;99.90
25877;DHT22;13692;47.480;19.216;2024-02-21T01:34:07;8.60;99.90
25877;DHT22;13692;47.480;19.216;2024-02-21T01:36:35;8.60;99.90
25877;DHT22;13692;47.480;19.216;2024-02-21T01:39:02;8.60;99.90
25877;DHT22;13692;47.480;19.216;2024-02-21T01:41:31;8.60;99.90
25877;DHT22;13692;47.480;19.216;2024-02-21T01:43:58;8.60;99.90
25877;DHT22;13692;47.480;19.216;2024-02-21T01:46:25;8.60;99.90
25877;DHT22;13692;47.480;19.216;2024-02-21T01:48:56;8.60;99.90
25877;DHT22;13692;47.480;19.216;2024-02-21T01:51:24;8.60;99.90
25877;DHT22;13692;47.480;19.216;2024-02-21T01:53:53;8.60;99.90
25877;DHT22;13692;47.480;19.216;2024-02-21T01:56:22;8.60;99.90
25877;DHT22;13692;47.480;19.216;2024-02-21T01:58:51;8.60;99.90
25877;DHT22;13692;47.480;19.216;2024-02-21T02:01:18;8.60;99.90
25877;DHT22;13692;47.480;19.216;2024-02-21T02:03:48;8.50;99.90
25877;DHT22;13692;47.480;19.216;2024-02-21T02:06:16;8.50;99.90
25877;DHT22;13692;47.480;19.216;2024-02-21T02:08:43;8.50;99.90
25877;DHT22;13692;47.480;19.216;2024-02-21T02:11:13;8.50;99.90
25877;DHT22;13692;47.480;19.216;2024-02-21T02:13:40;8.50;99.90
25877;DHT22;13692;47.480;19.216;2024-02-21T02:16:07;8.50;99.90
25877;DHT22;13692;47.480;19.216;2024-02-21T02:18:34;8.50;99.90
25877;DHT22;13692;47.480;19.216;2024-02-21T02:21:04;8.40;99.90
25877;DHT22;13692;47.480;19.216;2024-02-21T02:23:32;8.40;99.90
25877;DHT22;13692;47.480;19.216;2024-02-21T02:26:00;8.30;99.90
25877;DHT22;13692;47.480;19.216;2024-02-21T02:28:28;8.30;99.90
25877;DHT22;13692;47.480;19.216;2024-02-21T02:30:55;8.30;99.90
25877;DHT22;13692;47.480;19.216;2024-02-21T02:33:22;8.30;99.90
25877;DHT22;13692;47.480;19.216;2024-02-21T02:35:49;8.30;99.90
25877;DHT22;13692;47.480;19.216;2024-02-21T02:38:16;8.30;99.90
25877;DHT22;13692;47.480;19.216;2024-02-21T02:40:43;8.20;99.90
25877;DHT22;13692;47.480;19.216;2024-02-21T02:43:10;8.20;99.90
25877;DHT22;13692;47.480;19.216;2024-02-21T02:45:37;8.20;99.90
25877;DHT22;13692;47.480;19.216;2024-02-21T02:48:05;8.20;99.90
25877;DHT22;13692;47.480;19.216;2024-02-21T02:50:32;8.20;99.90
25877;DHT22;13692;47.480;19.216;2024-02-21T02:52:59;8.20;99.90
25877;DHT22;13692;47.480;19.216;2024-02-21T02:55:26;8.10;99.90
25877;DHT22;13692;47.480;19.216;2024-02-21T02:57:55;8.20;99.90
25877;DHT22;13692;47.480;19.216;2024-02-21T03:00:22;8.20;99.90
25877;DHT22;13692;47.480;19.216;2024-02-21T03:02:51;8.10;99.90
25877;DHT22;13692;47.480;19.216;2024-02-21T03:05:20;8.10;99.90
25877;DHT22;13692;47.480;19.216;2024-02-21T03:07:48;8.10;99.90
25877;DHT22;13692;47.480;19.216;2024-02-21T03:10:16;8.10;99.90
25877;DHT22;13692;47.480;19.216;2024-02-21T03:12:44;8.10;99.90
25877;DHT22;13692;47.480;19.216;2024-02-21T03:15:13;8.10;99.90
25877;DHT22;13692;47.480;19.216;2024-02-21T03:17:41;8.00;99.90
25877;DHT22;13692;47.480;19.216;2024-02-21T03:20:08;8.00;99.90
25877;DHT22;13692;47.480;19.216;2024-02-21T03:22:40;8.00;99.90
25877;DHT22;13692;47.480;19.216;2024-02-21T03:25:09;8.00;99.90
25877;DHT22;13692;47.480;19.216;2024-02-21T03:27:37;8.00;99.90
25877;DHT22;13692;47.480;19.216;2024-02-21T03:30:04;8.00;99.90
25877;DHT22;13692;47.480;19.216;2024-02-21T03:32:32;7.90;99.90
25877;DHT22;13692;47.480;19.216;2024-02-21T03:34:59;7.90;99.90
25877;DHT22;13692;47.480;19.216;2024-02-21T03:37:26;7.90;99.90
25877;DHT22;13692;47.480;19.216;2024-02-21T03:39:53;7.90;99.90
25877;DHT22;13692;47.480;19.216;2024-02-21T03:42:20;8.00;99.90
25877;DHT22;13692;47.480;19.216;2024-02-21T03:44:47;7.90;99.90
25877;DHT22;13692;47.480;19.216;2024-02-21T03:47:14;8.00;99.90
25877;DHT22;13692;47.480;19.216;2024-02-21T03:49:41;7.90;99.90
25877;DHT22;13692;47.480;19.216;2024-02-21T03:52:09;7.90;99.90
25877;DHT22;13692;47.480;19.216;2024-02-21T03:54:37;7.90;99.90
25877;DHT22;13692;47.480;19.216;2024-02-21T03:57:05;7.90;99.90
25877;DHT22;13692;47.480;19.216;2024-02-21T03:59:33;7.80;99.90
25877;DHT22;13692;47.480;19.216;2024-02-21T04:02:00;7.80;99.90
25877;DHT22;13692;47.480;19.216;2024-02-21T04:04:27;7.80;99.90
25877;DHT22;13692;47.480;19.216;2024-02-21T04:06:54;7.70;99.90
25877;DHT22;13692;47.480;19.216;2024-02-21T04:09:21;7.70;99.90
25877;DHT22;13692;47.480;19.216;2024-02-21T04:11:48;7.60;99.90
25877;DHT22;13692;47.480;19.216;2024-02-21T04:14:15;7.60;99.90
25877;DHT22;13692;47.480;19.216;2024-02-21T04:16:42;7.60;99.90
25877;DHT22;13692;47.480;19.216;2024-02-21T04:19:09;7.50;99.90
25877;DHT22;13692;47.480;19.216;2024-02-21T04:21:36;7.50;99.90
25877;DHT22;13692;47.480;19.216;2024-02-21T04:24:03;7.40;99.90
25877;DHT22;13692;47.480;19.216;2024-02-21T04:26:33;7.30;99.90
25877;DHT22;13692;47.480;19.216;2024-02-21T04:29:00;7.30;99.90
25877;DHT22;13692;47.480;19.216;2024-02-21T04:31:28;7.30;99.90
25877;DHT22;13692;47.480;19.216;2024-02-21T04:33:56;7.20;99.90
25877;DHT22;13692;47.480;19.216;2024-02-21T04:36:23;7.20;99.90
25877;DHT22;13692;47.480;19.216;2024-02-21T04:38:51;7.10;99.90
25877;DHT22;13692;47.480;19.216;2024-02-21T04:41:18;7.10;99.90
25877;DHT22;13692;47.480;19.216;2024-02-21T04:43:46;7.10;99.90
25877;DHT22;13692;47.480;19.216;2024-02-21T04:46:14;7.00;99.90
25877;DHT22;13692;47.480;19.216;2024-02-21T04:48:41;6.90;99.90
25877;DHT22;13692;47.480;19.216;2024-02-21T04:51:08;6.90;99.90
25877;DHT22;13692;47.480;19.216;2024-02-21T04:53:35;6.80;99.90
25877;DHT22;13692;47.480;19.216;2024-02-21T04:56:02;6.90;99.90
25877;DHT22;13692;47.480;19.216;2024-02-21T04:58:29;6.80;99.90
25877;DHT22;13692;47.480;19.216;2024-02-21T05:00:56;6.80;99.90
25877;DHT22;13692;47.480;19.216;2024-02-21T05:03:23;6.70;99.90
25877;DHT22;13692;47.480;19.216;2024-02-21T05:05:50;6.70;99.90
25877;DHT22;13692;47.480;19.216;2024-02-21T05:08:17;6.70;99.90
25877;DHT22;13692;47.480;19.216;2024-02-21T05:10:44;6.70;99.90
25877;DHT22;13692;47.480;19.216;2024-02-21T05:13:11;6.70;99.90
25877;DHT22;13692;47.480;19.216;2024-02-21T05:15:41;6.60;99.90
25877;DHT22;13692;47.480;19.216;2024-02-21T05:18:08;6.60;99.90
25877;DHT22;13692;47.480;19.216;2024-02-21T05:20:35;6.50;99.90
25877;DHT22;13692;47.480;19.216;2024-02-21T05:23:03;6.50;99.90
25877;DHT22;13692;47.480;19.216;2024-02-21T05:25:30;6.50;99.90
25877;DHT22;13692;47.480;19.216;2024-02-21T05:27:57;6.50;99.90
25877;DHT22;13692;47.480;19.216;2024-02-21T05:30:28;6.50;99.90
25877;DHT22;13692;47.480;19.216;2024-02-21T05:32:55;6.50;99.90
25877;DHT22;13692;47.480;19.216;2024-02-21T05:35:27;6.50;99.90
25877;DHT22;13692;47.480;19.216;2024-02-21T05:37:54;6.50;99.90
25877;DHT22;13692;47.480;19.216;2024-02-21T05:40:21;6.40;99.90
25877;DHT22;13692;47.480;19.216;2024-02-21T05:42:48;6.40;99.90
25877;DHT22;13692;47.480;19.216;2024-02-21T05:45:18;6.40;99.90
25877;DHT22;13692;47.480;19.216;2024-02-21T05:47:45;6.40;99.90
25877;DHT22;13692;47.480;19.216;2024-02-21T05:50:12;6.40;99.90
25877;DHT22;13692;47.480;19.216;2024-02-21T05:52:39;6.60;99.90
25877;DHT22;13692;47.480;19.216;2024-02-21T05:55:07;6.40;99.90
25877;DHT22;13692;47.480;19.216;2024-02-21T05:57:35;6.40;99.90
25877;DHT22;13692;47.480;19.216;2024-02-21T06:00:06;6.40;99.90
25877;DHT22;13692;47.480;19.216;2024-02-21T06:02:33;6.40;99.90
25877;DHT22;13692;47.480;19.216;2024-02-21T06:05:00;6.40;99.90
25877;DHT22;13692;47.480;19.216;2024-02-21T06:07:27;6.40;99.90
25877;DHT22;13692;47.480;19.216;2024-02-21T06:09:54;6.40;99.90
25877;DHT22;13692;47.480;19.216;2024-02-21T06:12:21;6.40;99.90
25877;DHT22;13692;47.480;19.216;2024-02-21T06:14:48;6.40;99.90
25877;DHT22;13692;47.480;19.216;2024-02-21T06:17:15;6.50;99.90
25877;DHT22;13692;47.480;19.216;2024-02-21T06:19:43;6.50;99.90
25877;DHT22;13692;47.480;19.216;2024-02-21T06:22:11;6.50;99.90
25877;DHT22;13692;47.480;19.216;2024-02-21T06:24:39;6.60;99.90
25877;DHT22;13692;47.480;19.216;2024-02-21T06:27:06;6.60;99.90
25877;DHT22;13692;47.480;19.216;2024-02-21T06:29:37;6.70;99.90
25877;DHT22;13692;47.480;19.216;2024-02-21T06:32:04;6.80;99.90
25877;DHT22;13692;47.480;19.216;2024-02-21T06:34:32;6.80;99.90
25877;DHT22;13692;47.480;19.216;2024-02-21T06:37:00;6.90;99.90
25877;DHT22;13692;47.480;19.216;2024-02-21T06:39:27;7.00;99.90
25877;DHT22;13692;47.480;19.216;2024-02-21T06:41:56;7.10;99.90
25877;DHT22;13692;47.480;19.216;2024-02-21T06:44:28;7.20;99.90
25877;DHT22;13692;47.480;19.216;2024-02-21T06:46:55;7.30;99.90
25877;DHT22;13692;47.480;19.216;2024-02-21T06:49:23;7.50;99.90
25877;DHT22;13692;47.480;19.216;2024-02-21T06:51:50;7.70;99.90
25877;DHT22;13692;47.480;19.216;2024-02-21T06:54:17;7.80;99.90
25877;DHT22;13692;47.480;19.216;2024-02-21T06:56:44;8.00;99.90
25877;DHT22;13692;47.480;19.216;2024-02-21T06:59:11;8.20;99.90
25877;DHT22;13692;47.480;19.216;2024-02-21T07:01:49;8.40;99.90
25877;DHT22;13692;47.480;19.216;2024-02-21T07:04:16;8.60;99.90
25877;DHT22;13692;47.480;19.216;2024-02-21T07:06:43;8.80;99.90
25877;DHT22;13692;47.480;19.216;2024-02-21T07:09:10;9.20;99.90
25877;DHT22;13692;47.480;19.216;2024-02-21T07:11:37;9.50;99.90
25877;DHT22;13692;47.480;19.216;2024-02-21T07:14:04;9.90;99.90
25877;DHT22;13692;47.480;19.216;2024-02-21T07:16:31;10.40;99.90
25877;DHT22;13692;47.480;19.216;2024-02-21T07:19:00;10.70;99.90
25877;DHT22;13692;47.480;19.216;2024-02-21T07:21:27;11.10;99.90
25877;DHT22;13692;47.480;19.216;2024-02-21T07:23:55;11.50;99.90
25877;DHT22;13692;47.480;19.216;2024-02-21T07:26:22;11.90;99.90
25877;DHT22;13692;47.480;19.216;2024-02-21T07:28:49;12.30;99.90
25877;DHT22;13692;47.480;19.216;2024-02-21T07:31:16;12.50;99.90
25877;DHT22;13692;47.480;19.216;2024-02-21T07:33:43;12.80;99.90
25877;DHT22;13692;47.480;19.216;2024-02-21T07:36:11;13.00;99.90
25877;DHT22;13692;47.480;19.216;2024-02-21T07:38:38;13.20;99.90
25877;DHT22;13692;47.480;19.216;2024-02-21T07:41:05;13.40;99.90
25877;DHT22;13692;47.480;19.216;2024-02-21T07:43:32;13.60;99.90
25877;DHT22;13692;47.480;19.216;2024-02-21T07:46:00;13.80;99.90
25877;DHT22;13692;47.480;19.216;2024-02-21T07:48:26;13.90;99.90
25877;DHT22;13692;47.480;19.216;2024-02-21T07:50:53;14.10;99.90
25877;DHT22;13692;47.480;19.216;2024-02-21T07:53:21;14.30;99.90
25877;DHT22;13692;47.480;19.216;2024-02-21T07:55:48;14.40;99.90
25877;DHT22;13692;47.480;19.216;2024-02-21T07:58:15;14.50;99.90
25877;DHT22;13692;47.480;19.216;2024-02-21T08:00:42;14.60;99.90
25877;DHT22;13692;47.480;19.216;2024-02-21T08:03:09;14.70;99.90
25877;DHT22;13692;47.480;19.216;2024-02-21T08:05:36;14.80;99.90
25877;DHT22;13692;47.480;19.216;2024-02-21T08:08:04;14.90;99.90
25877;DHT22;13692;47.480;19.216;2024-02-21T08:10:31;15.10;99.90
25877;DHT22;13692;47.480;19.216;2024-02-21T08:12:58;15.20;99.90
25877;DHT22;13692;47.480;19.216;2024-02-21T08:15:25;15.40;99.90
25877;DHT22;13692;47.480;19.216;2024-02-21T08:17:56;15.50;99.90
25877;DHT22;13692;47.480;19.216;2024-02-21T08:20:27;15.60;99.90
25877;DHT22;13692;47.480;19.216;2024-02-21T08:22:54;15.70;99.90
25877;DHT22;13692;47.480;19.216;2024-02-21T08:25:21;15.80;99.90
25877;DHT22;13692;47.480;19.216;2024-02-21T08:27:48;15.90;99.90
25877;DHT22;13692;47.480;19.216;2024-02-21T08:30:16;15.90;99.90
25877;DHT22;13692;47.480;19.216;2024-02-21T08:32:42;16.00;99.60
25877;DHT22;13692;47.480;19.216;2024-02-21T08:35:10;16.10;99.30
25877;DHT22;13692;47.480;19.216;2024-02-21T08:37:37;16.20;99.40
25877;DHT22;13692;47.480;19.216;2024-02-21T08:40:04;16.40;99.10
25877;DHT22;13692;47.480;19.216;2024-02-21T08:42:36;16.50;98.40
25877;DHT22;13692;47.480;19.216;2024-02-21T08:45:03;16.70;98.40
25877;DHT22;13692;47.480;19.216;2024-02-21T08:47:31;17.00;97.60
25877;DHT22;13692;47.480;19.216;2024-02-21T08:49:58;16.70;97.60
25877;DHT22;13692;47.480;19.216;2024-02-21T08:52:30;16.80;97.00
25877;DHT22;13692;47.480;19.216;2024-02-21T08:54:57;16.90;97.00
25877;DHT22;13692;47.480;19.216;2024-02-21T08:57:24;16.90;96.50
25877;DHT22;13692;47.480;19.216;2024-02-21T08:59:51;17.00;96.60
25877;DHT22;13692;47.480;19.216;2024-02-21T09:02:18;17.20;96.20
25877;DHT22;13692;47.480;19.216;2024-02-21T09:04:45;17.20;96.00
25877;DHT22;13692;47.480;19.216;2024-02-21T09:07:12;17.20;95.20
25877;DHT22;13692;47.480;19.216;2024-02-21T09:09:39;17.00;95.90
25877;DHT22;13692;47.480;19.216;2024-02-21T09:12:06;17.10;95.80
25877;DHT22;13692;47.480;19.216;2024-02-21T09:14:34;17.20;95.60
25877;DHT22;13692;47.480;19.216;2024-02-21T09:17:01;17.10;95.10
25877;DHT22;13692;47.480;19.216;2024-02-21T09:19:28;17.10;95.00
25877;DHT22;13692;47.480;19.216;2024-02-21T09:21:56;17.20;95.40
25877;DHT22;13692;47.480;19.216;2024-02-21T09:24:23;16.80;95.20
25877;DHT22;13692;47.480;19.216;2024-02-21T09:26:50;16.60;95.60
25877;DHT22;13692;47.480;19.216;2024-02-21T09:29:17;16.40;96.20
25877;DHT22;13692;47.480;19.216;2024-02-21T09:31:44;16.40;96.70
25877;DHT22;13692;47.480;19.216;2024-02-21T09:34:12;16.60;96.00
25877;DHT22;13692;47.480;19.216;2024-02-21T09:36:39;16.80;95.70
25877;DHT22;13692;47.480;19.216;2024-02-21T09:39:07;17.10;95.50
25877;DHT22;13692;47.480;19.216;2024-02-21T09:41:36;17.20;94.40
25877;DHT22;13692;47.480;19.216;2024-02-21T09:44:07;17.00;94.60
25877;DHT22;13692;47.480;19.216;2024-02-21T09:46:52;17.20;94.90
25877;DHT22;13692;47.480;19.216;2024-02-21T09:49:32;17.00;94.40
25877;DHT22;13692;47.480;19.216;2024-02-21T09:52:04;16.90;94.40
25877;DHT22;13692;47.480;19.216;2024-02-21T09:54:33;17.20;93.90
25877;DHT22;13692;47.480;19.216;2024-02-21T09:57:01;17.20;93.50
25877;DHT22;13692;47.480;19.216;2024-02-21T09:59:31;16.50;93.80
25877;DHT22;13692;47.480;19.216;2024-02-21T10:01:59;16.00;95.60
25877;DHT22;13692;47.480;19.216;2024-02-21T10:04:30;16.00;95.80
25877;DHT22;13692;47.480;19.216;2024-02-21T10:06:57;15.90;96.00
25877;DHT22;13692;47.480;19.216;2024-02-21T10:09:26;15.80;95.70
25877;DHT22;13692;47.480;19.216;2024-02-21T10:12:08;15.00;96.40
25877;DHT22;13692;47.480;19.216;2024-02-21T10:14:37;14.70;97.40
25877;DHT22;13692;47.480;19.216;2024-02-21T10:17:04;14.50;98.00
25877;DHT22;13692;47.480;19.216;2024-02-21T10:19:37;14.50;98.40
25877;DHT22;13692;47.480;19.216;2024-02-21T10:22:07;14.50;98.30
25877;DHT22;13692;47.480;19.216;2024-02-21T10:24:35;14.50;98.30
25877;DHT22;13692;47.480;19.216;2024-02-21T10:27:06;14.40;98.10
25877;DHT22;13692;47.480;19.216;2024-02-21T10:29:39;14.50;98.30
25877;DHT22;13692;47.480;19.216;2024-02-21T10:32:10;14.90;97.40
25877;DHT22;13692;47.480;19.216;2024-02-21T10:34:40;15.40;97.10
25877;DHT22;13692;47.480;19.216;2024-02-21T10:37:09;15.70;96.50
25877;DHT22;13692;47.480;19.216;2024-02-21T10:39:38;15.90;95.40
25877;DHT22;13692;47.480;19.216;2024-02-21T10:42:05;15.70;96.40
25877;DHT22;13692;47.480;19.216;2024-02-21T10:44:36;15.50;96.10
25877;DHT22;13692;47.480;19.216;2024-02-21T10:47:08;15.20;96.10
25877;DHT22;13692;47.480;19.216;2024-02-21T10:49:39;15.10;96.40
25877;DHT22;13692;47.480;19.216;2024-02-21T10:52:30;15.30;97.10
25877;DHT22;13692;47.480;19.216;2024-02-21T10:55:11;15.70;95.80
25877;DHT22;13692;47.480;19.216;2024-02-21T10:57:40;16.00;95.30
25877;DHT22;13692;47.480;19.216;2024-02-21T11:00:08;15.90;94.90
25877;DHT22;13692;47.480;19.216;2024-02-21T11:02:40;15.80;94.70
25877;DHT22;13692;47.480;19.216;2024-02-21T11:05:07;15.80;95.10
25877;DHT22;13692;47.480;19.216;2024-02-21T11:07:37;15.80;95.10
25877;DHT22;13692;47.480;19.216;2024-02-21T11:10:04;15.70;95.10
25877;DHT22;13692;47.480;19.216;2024-02-21T11:12:34;15.60;94.70
25877;DHT22;13692;47.480;19.216;2024-02-21T11:15:07;15.30;95.40
25877;DHT22;13692;47.480;19.216;2024-02-21T11:17:34;15.50;95.60
25877;DHT22;13692;47.480;19.216;2024-02-21T11:20:15;15.10;96.10
25877;DHT22;13692;47.480;19.216;2024-02-21T11:22:43;15.10;96.40
25877;DHT22;13692;47.480;19.216;2024-02-21T11:25:10;15.10;96.40
25877;DHT22;13692;47.480;19.216;2024-02-21T11:27:46;14.90;96.40
25877;DHT22;13692;47.480;19.216;2024-02-21T11:30:13;14.70;96.60
25877;DHT22;13692;47.480;19.216;2024-02-21T11:32:41;14.60;97.10
25877;DHT22;13692;47.480;19.216;2024-02-21T11:35:08;14.60;97.30
25877;DHT22;13692;47.480;19.216;2024-02-21T11:37:46;14.60;97.50
25877;DHT22;13692;47.480;19.216;2024-02-21T11:40:13;14.70;97.80
25877;DHT22;13692;47.480;19.216;2024-02-21T11:42:40;14.80;97.90
25877;DHT22;13692;47.480;19.216;2024-02-21T11:45:08;14.90;97.70
25877;DHT22;13692;47.480;19.216;2024-02-21T11:47:38;14.90;97.50
25877;DHT22;13692;47.480;19.216;2024-02-21T11:50:10;14.90;97.40
25877;DHT22;13692;47.480;19.216;2024-02-21T11:52:39;14.80;97.20
25877;DHT22;13692;47.480;19.216;2024-02-21T11:55:06;14.80;96.90
25877;DHT22;13692;47.480;19.216;2024-02-21T11:57:37;14.70;97.00
25877;DHT22;13692;47.480;19.216;2024-02-21T12:00:13;14.70;96.90
25877;DHT22;13692;47.480;19.216;2024-02-21T12:02:41;14.50;97.50
25877;DHT22;13692;47.480;19.216;2024-02-21T12:05:09;14.40;97.50
25877;DHT22;13692;47.480;19.216;2024-02-21T12:07:37;14.40;97.70
25877;DHT22;13692;47.480;19.216;2024-02-21T12:10:13;14.30;98.00
25877;DHT22;13692;47.480;19.216;2024-02-21T12:12:40;14.30;98.20
25877;DHT22;13692;47.480;19.216;2024-02-21T12:15:08;14.20;98.70
25877;DHT22;13692;47.480;19.216;2024-02-21T12:17:39;14.20;99.00
25877;DHT22;13692;47.480;19.216;2024-02-21T12:20:07;14.20;98.80
25877;DHT22;13692;47.480;19.216;2024-02-21T12:22:39;14.20;98.80
25877;DHT22;13692;47.480;19.216;2024-02-21T12:25:19;14.20;98.90
25877;DHT22;13692;47.480;19.216;2024-02-21T12:27:46;14.20;98.70
25877;DHT22;13692;47.480;19.216;2024-02-21T12:30:14;14.10;98.70
25877;DHT22;13692;47.480;19.216;2024-02-21T12:32:41;14.10;98.60
25877;DHT22;13692;47.480;19.216;2024-02-21T12:35:08;14.00;98.60
25877;DHT22;13692;47.480;19.216;2024-02-21T12:37:35;14.00;98.90
25877;DHT22;13692;47.480;19.216;2024-02-21T12:40:06;14.00;99.00
25877;DHT22;13692;47.480;19.216;2024-02-21T12:42:34;14.00;99.10
25877;DHT22;13692;47.480;19.216;2024-02-21T12:45:02;14.00;98.80
25877;DHT22;13692;47.480;19.216;2024-02-21T12:47:30;13.90;98.70
25877;DHT22;13692;47.480;19.216;2024-02-21T12:49:57;13.90;98.70
25877;DHT22;13692;47.480;19.216;2024-02-21T12:52:25;13.90;98.20
25877;DHT22;13692;47.480;19.216;2024-02-21T12:54:52;13.90;98.70
25877;DHT22;13692;47.480;19.216;2024-02-21T12:57:21;13.90;98.70
25877;DHT22;13692;47.480;19.216;2024-02-21T12:59:50;13.70;97.80
25877;DHT22;13692;47.480;19.216;2024-02-21T13:02:17;13.70;97.70
25877;DHT22;13692;47.480;19.216;2024-02-21T13:04:44;13.70;97.60
25877;DHT22;13692;47.480;19.216;2024-02-21T13:07:11;13.70;98.00
25877;DHT22;13692;47.480;19.216;2024-02-21T13:09:38;13.70;97.80
25877;DHT22;13692;47.480;19.216;2024-02-21T13:12:05;13.60;98.00
25877;DHT22;13692;47.480;19.216;2024-02-21T13:14:32;13.50;98.30
25877;DHT22;13692;47.480;19.216;2024-02-21T13:17:01;13.50;98.60
25877;DHT22;13692;47.480;19.216;2024-02-21T13:19:28;13.40;98.40
25877;DHT22;13692;47.480;19.216;2024-02-21T13:21:56;13.30;98.50
25877;DHT22;13692;47.480;19.216;2024-02-21T13:24:23;13.30;98.60
25877;DHT22;13692;47.480;19.216;2024-02-21T13:26:50;13.30;98.90
25877;DHT22;13692;47.480;19.216;2024-02-21T13:29:17;13.30;99.10
25877;DHT22;13692;47.480;19.216;2024-02-21T13:31:44;13.20;99.20
25877;DHT22;13692;47.480;19.216;2024-02-21T13:34:12;13.20;99.10
25877;DHT22;13692;47.480;19.216;2024-02-21T13:36:38;13.20;99.20
25877;DHT22;13692;47.480;19.216;2024-02-21T13:39:05;13.20;99.20
25877;DHT22;13692;47.480;19.216;2024-02-21T13:41:34;13.20;99.50
25877;DHT22;13692;47.480;19.216;2024-02-21T13:44:01;13.10;99.50
25877;DHT22;13692;47.480;19.216;2024-02-21T13:46:28;13.10;99.80
25877;DHT22;13692;47.480;19.216;2024-02-21T13:49:03;13.20;99.70
25877;DHT22;13692;47.480;19.216;2024-02-21T13:51:34;13.20;99.80
25877;DHT22;13692;47.480;19.216;2024-02-21T13:54:04;13.20;99.60
25877;DHT22;13692;47.480;19.216;2024-02-21T13:56:31;13.20;99.90
25877;DHT22;13692;47.480;19.216;2024-02-21T13:58:59;13.30;99.90
25877;DHT22;13692;47.480;19.216;2024-02-21T14:01:29;13.20;99.80
25877;DHT22;13692;47.480;19.216;2024-02-21T14:03:59;13.20;99.80
25877;DHT22;13692;47.480;19.216;2024-02-21T14:06:26;13.20;99.90
25877;DHT22;13692;47.480;19.216;2024-02-21T14:08:53;13.20;99.90
25877;DHT22;13692;47.480;19.216;2024-02-21T14:11:21;13.30;99.90
25877;DHT22;13692;47.480;19.216;2024-02-21T14:13:48;13.30;99.80
25877;DHT22;13692;47.480;19.216;2024-02-21T14:16:15;13.40;99.10
25877;DHT22;13692;47.480;19.216;2024-02-21T14:18:42;13.50;99.10
25877;DHT22;13692;47.480;19.216;2024-02-21T14:21:10;13.50;97.90
25877;DHT22;13692;47.480;19.216;2024-02-21T14:23:38;13.60;97.10
25877;DHT22;13692;47.480;19.216;2024-02-21T14:26:05;13.60;97.30
25877;DHT22;13692;47.480;19.216;2024-02-21T14:28:33;13.60;97.30
25877;DHT22;13692;47.480;19.216;2024-02-21T14:31:00;13.50;97.70
25877;DHT22;13692;47.480;19.216;2024-02-21T14:33:27;13.50;97.60
25877;DHT22;13692;47.480;19.216;2024-02-21T14:35:54;13.40;96.30
25877;DHT22;13692;47.480;19.216;2024-02-21T14:38:21;13.40;96.10
25877;DHT22;13692;47.480;19.216;2024-02-21T14:40:48;13.30;96.30
25877;DHT22;13692;47.480;19.216;2024-02-21T14:43:15;13.20;96.40
25877;DHT22;13692;47.480;19.216;2024-02-21T14:45:44;13.10;96.40
25877;DHT22;13692;47.480;19.216;2024-02-21T14:48:14;13.00;96.70
25877;DHT22;13692;47.480;19.216;2024-02-21T14:50:42;13.00;97.00
25877;DHT22;13692;47.480;19.216;2024-02-21T14:53:09;13.00;97.20
25877;DHT22;13692;47.480;19.216;2024-02-21T14:55:36;13.00;97.10
25877;DHT22;13692;47.480;19.216;2024-02-21T14:58:08;12.90;97.40
25877;DHT22;13692;47.480;19.216;2024-02-21T15:00:35;12.90;97.40
25877;DHT22;13692;47.480;19.216;2024-02-21T15:03:02;12.90;97.50
25877;DHT22;13692;47.480;19.216;2024-02-21T15:05:29;12.90;97.60
25877;DHT22;13692;47.480;19.216;2024-02-21T15:07:57;12.80;97.40
25877;DHT22;13692;47.480;19.216;2024-02-21T15:10:25;12.80;97.20
25877;DHT22;13692;47.480;19.216;2024-02-21T15:12:52;12.80;97.40
25877;DHT22;13692;47.480;19.216;2024-02-21T15:15:19;12.80;97.50
25877;DHT22;13692;47.480;19.216;2024-02-21T15:17:46;12.80;97.50
25877;DHT22;13692;47.480;19.216;2024-02-21T15:20:13;12.80;97.60
25877;DHT22;13692;47.480;19.216;2024-02-21T15:22:40;12.80;97.90
25877;DHT22;13692;47.480;19.216;2024-02-21T15:25:07;12.80;98.50
25877;DHT22;13692;47.480;19.216;2024-02-21T15:27:42;12.80;97.90